Litchfield, MI

8:48 AM EST on November 28, 2014 (GMT -0500)
North Manning Street | Change Station
CLOSE
Current Station
Personal Weather Station
Location: Hillsdale, MI
Elevation: 1145 ft
Nearby Weather Stations

Elev 1145 ft 41.93 °N, 84.63 °W | Updated 3 minutes ago

Overcast
Overcast
19.9 °F
Feels Like 20 °F
N
2.2
Wind Variable Wind from West
Gusts 4.5 mph

Today
High -- | Low -- °F
--% Chance of Precip.
Yesterday
High -- | Low -- °F
Precip. -- in
7:44 AM 5:09 PM
Waxing Crescent, 40% visible
Pressure 30.28 in
Visibility 10.0 miles
Clouds Overcast 9500 ft
Windchill 20 °F
Dew Point 17 °F
Humidity 87%
Rainfall 0.00 in
Snow Depth Not available.
UV 0 out of 12
Pollen .10 out of 12
Air Quality Not available.
Flu Activity Not available.
METAR KJYM 281335Z AUTO 19005KT 10SM OVC095 M06/M08 A3028 RMK AO2 T10651084

More Conditions Fewer Conditions

Pressure 30.28 in
Visibility 10.0 miles
Clouds Overcast 9500 ft
Windchill 20 °F
Dew Point 17 °F
Humidity 87%
Rainfall 0.00 in
Snow Depth Not available.
UV 0 out of 12
Pollen .10 out of 12
Air Quality Not available.
Flu Activity Not available.
METAR KJYM 281335Z AUTO 19005KT 10SM OVC095 M06/M08 A3028 RMK AO2 T10651084

More Conditions Fewer Conditions

10-Day Weather Forecast

Almanac

Astronomy

Nov. 28, 2014 Rise Set
Actual Time
Civil Twilight
Nautical Twilight
Astronomical Twilight
Moon
Length of Visible Light
Length of Day
Tomorrow will be .
, % of the Moon is Illuminated

Today's Extremes

State Highs State Lows

Community

WunderPhotos

Upload Photos

1,774,210 photos uploaded!

WunderBlogs® & News

Nearby

Air Quality

  Air Quality AQ Index Pollutant
Not available.

Snow Depth

Station Depth Elevation

Earthquake Activity

City Distance Mag. Time & Date
Minimum magnitude displayed is 2.5.

Coastal Water Temperatures

Place Temperature

Nearby Weather Stations